sensor_id;sensor_type;location;lat;lon;timestamp;pressure;altitude;pressure_sealevel;temperature;humidity
75775;BME280;64389;51.458;7.556;2022-10-17T00:00:45;99908.63;;;21.96;61.64
75775;BME280;64389;51.458;7.556;2022-10-17T00:02:48;99907.84;;;21.95;61.27
75775;BME280;64389;51.458;7.556;2022-10-17T00:04:50;99909.72;;;21.95;61.68
75775;BME280;64389;51.458;7.556;2022-10-17T00:06:54;99910.53;;;21.95;61.59
75775;BME280;64389;51.458;7.556;2022-10-17T00:08:57;99912.13;;;21.96;61.46
75775;BME280;64389;51.458;7.556;2022-10-17T00:11:01;99913.22;;;21.95;61.64
75775;BME280;64389;51.458;7.556;2022-10-17T00:13:04;99907.84;;;21.95;61.62
75775;BME280;64389;51.458;7.556;2022-10-17T00:15:07;99908.63;;;21.96;61.63
75775;BME280;64389;51.458;7.556;2022-10-17T00:17:10;99907.53;;;21.97;62.15
75775;BME280;64389;51.458;7.556;2022-10-17T00:19:13;99911.31;;;21.96;61.52
75775;BME280;64389;51.458;7.556;2022-10-17T00:21:16;99909.72;;;21.95;61.64
75775;BME280;64389;51.458;7.556;2022-10-17T00:23:20;99914.00;;;21.96;61.63
75775;BME280;64389;51.458;7.556;2022-10-17T00:25:23;99909.41;;;21.96;61.67
75775;BME280;64389;51.458;7.556;2022-10-17T00:27:25;99914.31;;;21.94;61.64
75775;BME280;64389;51.458;7.556;2022-10-17T00:29:29;99915.13;;;21.95;61.67
75775;BME280;64389;51.458;7.556;2022-10-17T00:31:31;99921.31;;;21.95;61.76
75775;BME280;64389;51.458;7.556;2022-10-17T00:33:34;99909.72;;;21.95;61.50
75775;BME280;64389;51.458;7.556;2022-10-17T00:35:37;99913.50;;;21.94;61.68
75775;BME280;64389;51.458;7.556;2022-10-17T00:37:40;99911.63;;;21.94;61.73
75775;BME280;64389;51.458;7.556;2022-10-17T00:39:43;99905.72;;;21.92;61.60
75775;BME280;64389;51.458;7.556;2022-10-17T00:41:46;99907.31;;;21.93;61.81
75775;BME280;64389;51.458;7.556;2022-10-17T00:43:54;99910.00;;;21.93;61.57
75775;BME280;64389;51.458;7.556;2022-10-17T00:45:57;99919.69;;;21.94;61.67
75775;BME280;64389;51.458;7.556;2022-10-17T00:48:02;99910.00;;;21.93;61.74
75775;BME280;64389;51.458;7.556;2022-10-17T00:50:07;99906.50;;;21.93;61.83
75775;BME280;64389;51.458;7.556;2022-10-17T00:52:13;99909.19;;;21.93;61.64
75775;BME280;64389;51.458;7.556;2022-10-17T00:54:20;99915.41;;;21.93;61.60
75775;BME280;64389;51.458;7.556;2022-10-17T00:56:25;99907.31;;;21.93;61.58
75775;BME280;64389;51.458;7.556;2022-10-17T00:58:34;99904.94;;;21.92;61.77
75775;BME280;64389;51.458;7.556;2022-10-17T01:00:37;99903.00;;;21.92;61.96
75775;BME280;64389;51.458;7.556;2022-10-17T01:02:40;99902.25;;;21.92;61.87
75775;BME280;64389;51.458;7.556;2022-10-17T01:04:44;99898.75;;;21.91;61.89
75775;BME280;64389;51.458;7.556;2022-10-17T01:06:48;99896.84;;;21.92;61.77
75775;BME280;64389;51.458;7.556;2022-10-17T01:08:50;99900.31;;;21.92;61.68
75775;BME280;64389;51.458;7.556;2022-10-17T01:11:00;99905.72;;;21.92;61.92
75775;BME280;64389;51.458;7.556;2022-10-17T01:13:12;99904.63;;;21.93;61.93
75775;BME280;64389;51.458;7.556;2022-10-17T01:15:28;99902.25;;;21.92;61.84
75775;BME280;64389;51.458;7.556;2022-10-17T01:17:42;99903.31;;;21.91;61.91
75775;BME280;64389;51.458;7.556;2022-10-17T01:20:03;99906.81;;;21.91;61.72
75775;BME280;64389;51.458;7.556;2022-10-17T01:22:10;99909.50;;;21.91;61.73
75775;BME280;64389;51.458;7.556;2022-10-17T01:24:46;99897.94;;;21.91;61.85
75775;BME280;64389;51.458;7.556;2022-10-17T01:27:11;99902.25;;;21.92;61.82
75775;BME280;64389;51.458;7.556;2022-10-17T01:29:33;99894.69;;;21.89;61.87
75775;BME280;64389;51.458;7.556;2022-10-17T01:31:46;99900.06;;;21.89;61.82
75775;BME280;64389;51.458;7.556;2022-10-17T01:33:56;99900.38;;;21.87;61.80
75775;BME280;64389;51.458;7.556;2022-10-17T01:36:07;99895.00;;;21.87;62.16
75775;BME280;64389;51.458;7.556;2022-10-17T01:38:16;99897.69;;;21.87;62.03
75775;BME280;64389;51.458;7.556;2022-10-17T01:40:23;99902.75;;;21.89;62.05
75775;BME280;64389;51.458;7.556;2022-10-17T01:42:32;99890.41;;;21.88;61.87
75775;BME280;64389;51.458;7.556;2022-10-17T01:44:41;99900.88;;;21.89;61.90
75775;BME280;64389;51.458;7.556;2022-10-17T01:46:50;99900.06;;;21.89;62.10
75775;BME280;64389;51.458;7.556;2022-10-17T01:48:54;99894.69;;;21.89;61.67
75775;BME280;64389;51.458;7.556;2022-10-17T01:51:02;99890.91;;;21.90;61.62
75775;BME280;64389;51.458;7.556;2022-10-17T01:53:11;99903.88;;;21.88;62.00
75775;BME280;64389;51.458;7.556;2022-10-17T01:55:18;99889.31;;;21.89;61.90
75775;BME280;64389;51.458;7.556;2022-10-17T01:57:26;99882.63;;;21.86;62.31
75775;BME280;64389;51.458;7.556;2022-10-17T01:59:35;99881.22;;;21.89;61.85
75775;BME280;64389;51.458;7.556;2022-10-17T02:01:40;99886.63;;;21.89;61.74
75775;BME280;64389;51.458;7.556;2022-10-17T02:03:47;99878.53;;;21.89;61.71
75775;BME280;64389;51.458;7.556;2022-10-17T02:05:51;99870.78;;;21.87;61.65
75775;BME280;64389;51.458;7.556;2022-10-17T02:07:54;99881.53;;;21.87;62.15
75775;BME280;64389;51.458;7.556;2022-10-17T02:09:57;99876.16;;;21.87;62.29
75775;BME280;64389;51.458;7.556;2022-10-17T02:12:23;99882.34;;;21.88;61.77
75775;BME280;64389;51.458;7.556;2022-10-17T02:14:37;99878.53;;;21.89;61.76
75775;BME280;64389;51.458;7.556;2022-10-17T02:16:49;99875.84;;;21.89;61.90
75775;BME280;64389;51.458;7.556;2022-10-17T02:19:05;99883.72;;;21.85;61.75
75775;BME280;64389;51.458;7.556;2022-10-17T02:21:15;99878.03;;;21.87;61.82
75775;BME280;64389;51.458;7.556;2022-10-17T02:23:24;99873.75;;;21.86;61.86
75775;BME280;64389;51.458;7.556;2022-10-17T02:25:34;99875.63;;;21.85;61.87
75775;BME280;64389;51.458;7.556;2022-10-17T02:27:45;99882.94;;;21.85;62.13
75775;BME280;64389;51.458;7.556;2022-10-17T02:29:56;99869.16;;;21.86;61.98
75775;BME280;64389;51.458;7.556;2022-10-17T02:32:04;99865.66;;;21.86;61.79
75775;BME280;64389;51.458;7.556;2022-10-17T02:34:12;99872.94;;;21.85;61.99
75775;BME280;64389;51.458;7.556;2022-10-17T02:36:20;99870.56;;;21.84;61.79
75775;BME280;64389;51.458;7.556;2022-10-17T02:38:25;99874.84;;;21.85;61.88
75775;BME280;64389;51.458;7.556;2022-10-17T02:40:30;99878.31;;;21.85;61.83
75775;BME280;64389;51.458;7.556;2022-10-17T02:42:33;99878.03;;;21.87;61.84
75775;BME280;64389;51.458;7.556;2022-10-17T02:44:37;99862.97;;;21.86;62.08
75775;BME280;64389;51.458;7.556;2022-10-17T02:46:42;99873.75;;;21.86;61.82
75775;BME280;64389;51.458;7.556;2022-10-17T02:48:48;99876.16;;;21.87;61.71
75775;BME280;64389;51.458;7.556;2022-10-17T02:50:57;99878.31;;;21.85;61.85
75775;BME280;64389;51.458;7.556;2022-10-17T02:53:08;99873.75;;;21.86;61.91
75775;BME280;64389;51.458;7.556;2022-10-17T02:55:15;99869.47;;;21.85;61.96
75775;BME280;64389;51.458;7.556;2022-10-17T02:57:24;99866.78;;;21.85;62.07
75775;BME280;64389;51.458;7.556;2022-10-17T02:59:29;99869.47;;;21.85;62.70
75775;BME280;64389;51.458;7.556;2022-10-17T03:01:39;99864.38;;;21.83;61.81
75775;BME280;64389;51.458;7.556;2022-10-17T03:03:42;99869.47;;;21.85;61.80
75775;BME280;64389;51.458;7.556;2022-10-17T03:05:45;99868.66;;;21.84;61.96
75775;BME280;64389;51.458;7.556;2022-10-17T03:07:49;99863.28;;;21.84;62.06
75775;BME280;64389;51.458;7.556;2022-10-17T03:09:52;99868.66;;;21.84;61.93
75775;BME280;64389;51.458;7.556;2022-10-17T03:11:55;99871.84;;;21.86;61.94
75775;BME280;64389;51.458;7.556;2022-10-17T03:13:57;99873.75;;;21.86;62.03
75775;BME280;64389;51.458;7.556;2022-10-17T03:16:00;99870.84;;;21.82;62.03
75775;BME280;64389;51.458;7.556;2022-10-17T03:18:17;99875.13;;;21.83;61.92
75775;BME280;64389;51.458;7.556;2022-10-17T03:20:19;99876.75;;;21.84;62.01
75775;BME280;64389;51.458;7.556;2022-10-17T03:22:22;99875.94;;;21.84;61.87
75775;BME280;64389;51.458;7.556;2022-10-17T03:24:26;99869.47;;;21.85;61.74
75775;BME280;64389;51.458;7.556;2022-10-17T03:26:29;99882.13;;;21.84;62.19
75775;BME280;64389;51.458;7.556;2022-10-17T03:28:32;99881.31;;;21.84;61.61
75775;BME280;64389;51.458;7.556;2022-10-17T03:30:37;99874.84;;;21.85;62.10
75775;BME280;64389;51.458;7.556;2022-10-17T03:32:40;99867.06;;;21.83;62.24
75775;BME280;64389;51.458;7.556;2022-10-17T03:34:42;99875.13;;;21.83;61.98
75775;BME280;64389;51.458;7.556;2022-10-17T03:36:45;99878.63;;;21.84;62.04
75775;BME280;64389;51.458;7.556;2022-10-17T03:38:48;99872.94;;;21.85;62.00
75775;BME280;64389;51.458;7.556;2022-10-17T03:40:55;99871.34;;;21.84;61.94
75775;BME280;64389;51.458;7.556;2022-10-17T03:42:58;99878.31;;;21.85;61.83
75775;BME280;64389;51.458;7.556;2022-10-17T03:45:02;99884.00;;;21.84;62.08
75775;BME280;64389;51.458;7.556;2022-10-17T03:47:04;99886.72;;;21.84;62.32
75775;BME280;64389;51.458;7.556;2022-10-17T03:49:12;99886.41;;;21.85;62.11
75775;BME280;64389;51.458;7.556;2022-10-17T03:51:14;99885.91;;;21.83;61.92
75775;BME280;64389;51.458;7.556;2022-10-17T03:53:17;99883.22;;;21.83;61.96
75775;BME280;64389;51.458;7.556;2022-10-17T03:55:20;99877.03;;;21.83;61.84
75775;BME280;64389;51.458;7.556;2022-10-17T03:57:24;99883.72;;;21.85;61.79
75775;BME280;64389;51.458;7.556;2022-10-17T03:59:27;99887.50;;;21.84;61.90
75775;BME280;64389;51.458;7.556;2022-10-17T04:01:30;99895.28;;;21.86;61.60
75775;BME280;64389;51.458;7.556;2022-10-17T04:03:33;99883.22;;;21.83;61.70
75775;BME280;64389;51.458;7.556;2022-10-17T04:05:36;99898.78;;;21.86;61.42
75775;BME280;64389;51.458;7.556;2022-10-17T04:07:38;99894.59;;;21.99;60.85
75775;BME280;64389;51.458;7.556;2022-10-17T04:09:41;99895.50;;;22.08;60.75
75775;BME280;64389;51.458;7.556;2022-10-17T04:11:43;99894.63;;;22.13;60.87
75775;BME280;64389;51.458;7.556;2022-10-17T04:13:51;99893.44;;;22.19;60.34
75775;BME280;64389;51.458;7.556;2022-10-17T04:15:55;99896.56;;;22.26;60.63
75775;BME280;64389;51.458;7.556;2022-10-17T04:17:58;99890.31;;;22.30;60.46
75775;BME280;64389;51.458;7.556;2022-10-17T04:20:01;99894.50;;;22.36;59.86
75775;BME280;64389;51.458;7.556;2022-10-17T04:22:03;99897.91;;;22.42;60.04
75775;BME280;64389;51.458;7.556;2022-10-17T04:24:10;99900.44;;;22.52;59.86
75775;BME280;64389;51.458;7.556;2022-10-17T04:26:13;99899.16;;;22.63;59.64
75775;BME280;64389;51.458;7.556;2022-10-17T04:28:15;99896.38;;;22.68;59.20
75775;BME280;64389;51.458;7.556;2022-10-17T04:30:19;99904.38;;;22.73;59.29
75775;BME280;64389;51.458;7.556;2022-10-17T04:32:22;99897.31;;;22.77;59.31
75775;BME280;64389;51.458;7.556;2022-10-17T04:34:26;99900.69;;;22.83;59.13
75775;BME280;64389;51.458;7.556;2022-10-17T04:36:28;99898.19;;;22.86;59.19
75775;BME280;64389;51.458;7.556;2022-10-17T04:38:31;99893.59;;;22.87;59.08
75775;BME280;64389;51.458;7.556;2022-10-17T04:40:35;99888.72;;;22.89;58.74
75775;BME280;64389;51.458;7.556;2022-10-17T04:42:37;99887.94;;;22.88;59.10
75775;BME280;64389;51.458;7.556;2022-10-17T04:44:40;99898.41;;;22.90;59.57
75775;BME280;64389;51.458;7.556;2022-10-17T04:46:44;99895.22;;;22.88;59.57
75775;BME280;64389;51.458;7.556;2022-10-17T04:48:47;99887.94;;;22.88;59.04
75775;BME280;64389;51.458;7.556;2022-10-17T04:50:53;99885.03;;;22.85;59.22
75775;BME280;64389;51.458;7.556;2022-10-17T04:52:56;99885.53;;;22.87;59.81
75775;BME280;64389;51.458;7.556;2022-10-17T04:54:59;99889.53;;;22.89;60.06
75775;BME280;64389;51.458;7.556;2022-10-17T04:57:01;99899.19;;;22.90;60.44
75775;BME280;64389;51.458;7.556;2022-10-17T04:59:04;99902.22;;;22.89;60.18
75775;BME280;64389;51.458;7.556;2022-10-17T05:01:08;99904.91;;;22.89;59.93
75775;BME280;64389;51.458;7.556;2022-10-17T05:03:13;99903.59;;;22.86;59.70
75775;BME280;64389;51.458;7.556;2022-10-17T05:05:16;99908.50;;;22.84;60.61
75775;BME280;64389;51.458;7.556;2022-10-17T05:07:18;99909.78;;;22.87;61.11
75775;BME280;64389;51.458;7.556;2022-10-17T05:09:22;99900.69;;;22.83;60.89
75775;BME280;64389;51.458;7.556;2022-10-17T05:11:26;99900.19;;;22.81;60.46
75775;BME280;64389;51.458;7.556;2022-10-17T05:13:29;99894.81;;;22.81;60.95
75775;BME280;64389;51.458;7.556;2022-10-17T05:15:31;99896.09;;;22.83;60.72
75775;BME280;64389;51.458;7.556;2022-10-17T05:17:53;99904.19;;;22.83;60.80
75775;BME280;64389;51.458;7.556;2022-10-17T05:19:58;99910.69;;;22.82;60.18
75775;BME280;64389;51.458;7.556;2022-10-17T05:22:00;99908.56;;;22.79;60.28
75775;BME280;64389;51.458;7.556;2022-10-17T05:24:04;99905.19;;;22.74;60.49
75775;BME280;64389;51.458;7.556;2022-10-17T05:26:07;99912.19;;;22.75;60.00
75775;BME280;64389;51.458;7.556;2022-10-17T05:28:10;99913.00;;;22.75;59.59
75775;BME280;64389;51.458;7.556;2022-10-17T05:30:12;99924.56;;;22.76;59.81
